createdAt,value
2023-05-13T00:00:16.108Z,96816.75
2023-05-13T00:01:19.044Z,96822.16
2023-05-13T00:02:21.120Z,96818.31
2023-05-13T00:03:24.090Z,96813.09
2023-05-13T00:04:26.003Z,96817.53
2023-05-13T00:05:27.882Z,96823.75
2023-05-13T00:06:29.778Z,96816.13
2023-05-13T00:07:31.745Z,96812.34
2023-05-13T00:08:33.695Z,96815.16
2023-05-13T00:09:35.589Z,96812.94
2023-05-13T00:10:37.465Z,96813.38
2023-05-13T00:11:39.340Z,96819.84
2023-05-13T00:12:41.258Z,96818.03
2023-05-13T00:13:43.186Z,96816.03
2023-05-13T00:14:45.091Z,96812.00
2023-05-13T00:15:46.894Z,96819.84
2023-05-13T00:16:48.844Z,96814.44
2023-05-13T00:17:50.864Z,96817.84
2023-05-13T00:18:52.921Z,96815.66
2023-05-13T00:19:54.810Z,96815.06
2023-05-13T00:20:56.701Z,96810.03
2023-05-13T00:21:58.687Z,96824.28
2023-05-13T00:23:00.757Z,96821.28
2023-05-13T00:24:02.785Z,96814.81
2023-05-13T00:25:04.682Z,96815.22
2023-05-13T00:26:06.741Z,96820.63
2023-05-13T00:27:08.965Z,96817.84
2023-05-13T00:28:11.522Z,96822.28
2023-05-13T00:29:13.732Z,96819.84
2023-05-13T00:30:15.599Z,96821.28
2023-05-13T00:31:17.488Z,96822.50
2023-05-13T00:32:19.438Z,96818.50
2023-05-13T00:33:21.316Z,96824.34
2023-05-13T00:34:23.336Z,96821.50
2023-05-13T00:35:25.152Z,96825.72
2023-05-13T00:36:27.746Z,96817.88
2023-05-13T00:37:29.620Z,96829.72
2023-05-13T00:38:31.469Z,96832.13
2023-05-13T00:39:33.309Z,96820.28
2023-05-13T00:40:38.344Z,96821.88
2023-05-13T00:41:40.311Z,96815.84
2023-05-13T00:42:42.266Z,96816.84
2023-05-13T00:43:44.137Z,96824.50
2023-05-13T00:44:46.120Z,96818.28
2023-05-13T00:45:48.073Z,96818.28
2023-05-13T00:46:50.074Z,96821.13
2023-05-13T00:47:52.111Z,96817.34
2023-05-13T00:48:54.068Z,96812.31
2023-05-13T00:49:56.062Z,96820.31
2023-05-13T00:50:57.868Z,96820.09
2023-05-13T00:51:59.998Z,96817.69
2023-05-13T00:53:02.249Z,96819.50
2023-05-13T00:54:04.814Z,96819.31
2023-05-13T00:55:07.359Z,96822.72
2023-05-13T00:56:09.287Z,96822.06
2023-05-13T00:57:11.086Z,96824.50
2023-05-13T00:58:13.413Z,96820.88
2023-05-13T00:59:15.294Z,96822.47
2023-05-13T01:00:17.379Z,96824.50
2023-05-13T01:01:23.528Z,96824.69
2023-05-13T01:02:35.122Z,96818.09
2023-05-13T01:03:37.000Z,96826.13
2023-05-13T01:04:44.605Z,96821.91
2023-05-13T01:06:10.393Z,96820.53
2023-05-13T01:07:12.230Z,96821.31
2023-05-13T01:08:34.263Z,96828.97
2023-05-13T01:09:46.179Z,96823.31
2023-05-13T01:10:51.610Z,96823.31
2023-05-13T01:11:55.667Z,96833.16
2023-05-13T01:12:59.226Z,96822.38
2023-05-13T01:14:12.679Z,96831.22
2023-05-13T01:15:16.544Z,96829.78
2023-05-13T01:16:25.755Z,96836.59
2023-05-13T01:17:37.517Z,96830.00
2023-05-13T01:18:47.972Z,96828.19
2023-05-13T01:19:54.904Z,96827.00
2023-05-13T01:20:57.104Z,96823.59
2023-05-13T01:21:59.251Z,96833.59
2023-05-13T01:23:01.276Z,96828.19
2023-05-13T01:24:03.097Z,96829.78
2023-05-13T01:25:05.076Z,96825.38
2023-05-13T01:26:06.993Z,96826.16
2023-05-13T01:27:09.148Z,96826.75
2023-05-13T01:28:11.184Z,96830.97
2023-05-13T01:29:13.205Z,96834.19
2023-05-13T01:30:15.438Z,96824.13
2023-05-13T01:31:18.018Z,96826.75
2023-05-13T01:32:20.862Z,96824.72
2023-05-13T01:33:23.785Z,96825.56
2023-05-13T01:34:26.063Z,96830.00
2023-05-13T01:35:28.849Z,96827.19
2023-05-13T01:36:31.105Z,96828.78
2023-05-13T01:37:33.367Z,96831.81
2023-05-13T01:38:36.162Z,96829.44
2023-05-13T01:39:38.845Z,96830.44
2023-05-13T01:40:41.922Z,96827.81
2023-05-13T01:41:45.080Z,96828.63
2023-05-13T01:42:47.180Z,96831.63
2023-05-13T01:43:49.012Z,96824.38
2023-05-13T01:44:52.019Z,96826.41
2023-05-13T01:45:53.934Z,96817.81
2023-05-13T01:46:56.004Z,96824.81
2023-05-13T01:47:58.028Z,96827.81
2023-05-13T01:49:00.052Z,96825.81
2023-05-13T01:50:01.928Z,96831.47
2023-05-13T01:51:05.123Z,96822.81
2023-05-13T01:52:07.128Z,96834.66
2023-05-13T01:53:08.994Z,96824.22
2023-05-13T01:54:10.987Z,96830.03
2023-05-13T01:55:12.780Z,96828.59
2023-05-13T01:56:14.548Z,96825.22
2023-05-13T01:57:16.381Z,96826.28
2023-05-13T01:58:18.227Z,96827.84
2023-05-13T01:59:20.203Z,96827.06
2023-05-13T02:00:22.446Z,96822.63
2023-05-13T02:01:24.832Z,96826.66
2023-05-13T02:02:27.277Z,96830.31
2023-05-13T02:03:29.243Z,96829.88
2023-05-13T02:04:31.373Z,96833.69
2023-05-13T02:05:33.507Z,96832.69
2023-05-13T02:06:35.341Z,96830.66
2023-05-13T02:07:37.437Z,96829.06
2023-05-13T02:08:39.264Z,96829.66
2023-05-13T02:09:41.164Z,96832.25
2023-05-13T02:10:43.100Z,96822.63
2023-05-13T02:11:46.029Z,96823.03
2023-05-13T02:12:48.326Z,96822.19
2023-05-13T02:13:50.269Z,96821.78
2023-05-13T02:14:52.100Z,96826.78
2023-05-13T02:15:54.585Z,96825.56
2023-05-13T02:16:56.477Z,96834.00
2023-05-13T02:17:58.378Z,96828.59
2023-05-13T02:19:00.330Z,96825.22
2023-05-13T02:20:02.320Z,96823.81
2023-05-13T02:21:04.170Z,96837.09
2023-05-13T02:22:06.220Z,96825.03
2023-05-13T02:23:08.321Z,96819.41
2023-05-13T02:24:10.396Z,96826.25
2023-05-13T02:25:12.334Z,96821.81
2023-05-13T02:26:14.258Z,96820.59
2023-05-13T02:27:16.839Z,96816.53
2023-05-13T02:28:18.717Z,96827.59
2023-05-13T02:29:20.556Z,96827.38
2023-05-13T02:30:27.215Z,96818.53
2023-05-13T02:31:29.067Z,96821.38
2023-05-13T02:32:31.047Z,96822.59
2023-05-13T02:33:32.912Z,96823.63
2023-05-13T02:34:34.709Z,96825.81
2023-05-13T02:35:36.575Z,96822.78
2023-05-13T02:36:39.177Z,96819.75
2023-05-13T02:37:41.066Z,96825.56
2023-05-13T02:38:42.954Z,96827.59
2023-05-13T02:39:44.771Z,96823.75
2023-05-13T02:40:46.696Z,96828.38
2023-05-13T02:41:48.732Z,96822.56
2023-05-13T02:42:51.208Z,96826.59
2023-05-13T02:43:53.076Z,96829.78
2023-05-13T02:44:55.048Z,96825.38
2023-05-13T02:45:56.932Z,96826.16
2023-05-13T02:46:58.897Z,96825.97
2023-05-13T02:48:00.804Z,96825.78
2023-05-13T02:49:02.867Z,96831.22
2023-05-13T02:50:06.487Z,96825.19
2023-05-13T02:51:09.845Z,96826.38
2023-05-13T02:52:11.707Z,96827.19
2023-05-13T02:53:13.557Z,96822.94
2023-05-13T02:54:15.567Z,96827.41
2023-05-13T02:55:17.559Z,96824.41
2023-05-13T02:56:19.640Z,96827.03
2023-05-13T02:57:21.587Z,96831.66
2023-05-13T02:58:23.441Z,96819.78
2023-05-13T02:59:25.860Z,96832.44
2023-05-13T03:00:27.700Z,96837.69
2023-05-13T03:01:29.709Z,96825.06
2023-05-13T03:02:32.454Z,96834.13
2023-05-13T03:03:34.470Z,96829.91
2023-05-13T03:04:36.459Z,96830.50
2023-05-13T03:05:38.291Z,96828.69
2023-05-13T03:06:40.124Z,96833.31
2023-05-13T03:07:42.064Z,96835.56
2023-05-13T03:08:43.958Z,96837.97
2023-05-13T03:09:45.965Z,96839.19
2023-05-13T03:10:47.809Z,96835.97
2023-05-13T03:11:49.692Z,96833.97
2023-05-13T03:12:51.703Z,96835.97
2023-05-13T03:13:53.657Z,96835.97
2023-05-13T03:14:55.601Z,96833.53
2023-05-13T03:15:57.564Z,96834.97
2023-05-13T03:16:59.444Z,96832.13
2023-05-13T03:18:01.586Z,96837.75
2023-05-13T03:19:03.630Z,96832.72
2023-05-13T03:20:05.856Z,96839.75
2023-05-13T03:21:07.752Z,96839.75
2023-05-13T03:22:09.978Z,96832.34
2023-05-13T03:23:11.836Z,96833.53
2023-05-13T03:24:13.666Z,96838.16
2023-05-13T03:25:15.675Z,96836.56
2023-05-13T03:26:17.559Z,96838.97
2023-05-13T03:27:19.650Z,96834.75
2023-05-13T03:28:21.669Z,96836.38
2023-05-13T03:29:23.649Z,96838.38
2023-05-13T03:30:25.589Z,96844.19
2023-05-13T03:31:27.541Z,96838.53
2023-05-13T03:32:31.847Z,96834.72
2023-05-13T03:33:33.717Z,96839.16
2023-05-13T03:34:36.697Z,96833.94
2023-05-13T03:35:39.315Z,96832.72
2023-05-13T03:36:41.354Z,96841.16
2023-05-13T03:37:43.194Z,96837.53
2023-05-13T03:38:45.031Z,96835.94
2023-05-13T03:39:46.890Z,96832.31
2023-05-13T03:40:48.748Z,96841.16
2023-05-13T03:41:50.590Z,96837.53
2023-05-13T03:42:52.463Z,96842.75
2023-05-13T03:43:54.752Z,96840.56
2023-05-13T03:44:57.503Z,96837.13
2023-05-13T03:45:59.398Z,96841.56
2023-05-13T03:47:01.389Z,96836.16
2023-05-13T03:48:03.404Z,96842.59
2023-05-13T03:49:05.320Z,96839.59
2023-05-13T03:50:07.670Z,96843.59
2023-05-13T03:51:09.488Z,96840.81
2023-05-13T03:52:11.339Z,96841.03
2023-05-13T03:53:13.236Z,96841.41
2023-05-13T03:54:15.085Z,96844.03
2023-05-13T03:55:17.028Z,96840.41
2023-05-13T03:56:18.814Z,96836.81
2023-05-13T03:57:20.702Z,96842.84
2023-05-13T03:58:23.268Z,96844.84
2023-05-13T03:59:25.191Z,96849.44
2023-05-13T04:00:27.084Z,96847.44
2023-05-13T04:01:30.145Z,96850.84
2023-05-13T04:02:32.152Z,96851.44
2023-05-13T04:03:34.840Z,96852.47
2023-05-13T04:04:36.698Z,96851.44
2023-05-13T04:05:38.699Z,96852.63
2023-05-13T04:06:40.579Z,96852.63
2023-05-13T04:07:42.485Z,96853.81
2023-05-13T04:08:44.817Z,96854.06
2023-05-13T04:09:46.631Z,96856.44
2023-05-13T04:10:48.708Z,96857.25
2023-05-13T04:11:50.705Z,96854.06
2023-05-13T04:12:52.552Z,96859.28
2023-05-13T04:13:54.370Z,96859.88
2023-05-13T04:14:56.289Z,96863.28
2023-05-13T04:15:58.408Z,96863.09
2023-05-13T04:17:00.387Z,96867.47
2023-05-13T04:18:02.387Z,96861.66
2023-05-13T04:19:04.442Z,96865.69
2023-05-13T04:20:06.858Z,96859.28
2023-05-13T04:21:09.472Z,96862.06
2023-05-13T04:22:11.334Z,96864.50
2023-05-13T04:23:13.317Z,96865.72
2023-05-13T04:24:15.475Z,96860.88
2023-05-13T04:25:17.347Z,96861.28
2023-05-13T04:26:19.260Z,96857.69
2023-05-13T04:27:21.209Z,96857.44
2023-05-13T04:28:23.103Z,96858.88
2023-05-13T04:29:24.949Z,96855.66
2023-05-13T04:30:26.813Z,96858.47
2023-05-13T04:31:28.770Z,96853.66
2023-05-13T04:32:30.666Z,96858.44
2023-05-13T04:33:32.540Z,96864.69
2023-05-13T04:34:34.368Z,96856.06
2023-05-13T04:35:36.245Z,96855.84
2023-05-13T04:36:38.125Z,96859.06
2023-05-13T04:37:39.998Z,96863.06
2023-05-13T04:38:41.875Z,96863.66
2023-05-13T04:39:46.650Z,96861.28
2023-05-13T04:40:48.616Z,96861.91
2023-05-13T04:41:50.667Z,96860.50
2023-05-13T04:42:55.337Z,96857.31
2023-05-13T04:43:57.169Z,96854.09
2023-05-13T04:44:58.966Z,96860.13
2023-05-13T04:46:00.840Z,96865.34
2023-05-13T04:47:02.862Z,96860.72
2023-05-13T04:48:04.717Z,96855.50
2023-05-13T04:49:06.813Z,96861.72
2023-05-13T04:50:09.280Z,96860.31
2023-05-13T04:51:11.678Z,96861.50
2023-05-13T04:52:14.289Z,96858.88
2023-05-13T04:53:16.352Z,96862.09
2023-05-13T04:54:18.203Z,96866.53
2023-05-13T04:55:20.073Z,96861.69
2023-05-13T04:56:22.108Z,96864.09
2023-05-13T04:57:24.446Z,96862.31
2023-05-13T04:58:27.218Z,96863.28
2023-05-13T04:59:29.147Z,96865.72
2023-05-13T05:00:31.081Z,96865.72
2023-05-13T05:01:32.986Z,96862.06
2023-05-13T05:02:34.963Z,96859.69
2023-05-13T05:03:36.924Z,96862.47
2023-05-13T05:04:38.874Z,96864.69
2023-05-13T05:05:40.705Z,96866.28
2023-05-13T05:06:42.613Z,96870.50
2023-05-13T05:07:44.533Z,96870.50
2023-05-13T05:08:46.412Z,96870.50
2023-05-13T05:09:48.361Z,96869.50
2023-05-13T05:10:50.199Z,96872.91
2023-05-13T05:11:52.048Z,96868.69
2023-05-13T05:12:53.994Z,96867.25
2023-05-13T05:13:55.902Z,96873.28
2023-05-13T05:14:57.789Z,96870.06
2023-05-13T05:15:59.708Z,96876.88
2023-05-13T05:17:01.581Z,96873.06
2023-05-13T05:18:03.653Z,96872.06
2023-05-13T05:19:05.751Z,96875.09
2023-05-13T05:20:07.977Z,96880.69
2023-05-13T05:21:10.638Z,96876.09
2023-05-13T05:22:12.527Z,96872.91
2023-05-13T05:23:14.602Z,96877.69
2023-05-13T05:24:16.466Z,96877.09
2023-05-13T05:25:18.889Z,96875.31
2023-05-13T05:26:20.999Z,96873.31
2023-05-13T05:27:22.934Z,96881.31
2023-05-13T05:28:24.804Z,96877.09
2023-05-13T05:29:26.730Z,96870.31
2023-05-13T05:30:28.616Z,96870.94
2023-05-13T05:31:31.269Z,96867.88
2023-05-13T05:32:34.227Z,96873.72
2023-05-13T05:33:36.544Z,96873.72
2023-05-13T05:34:38.756Z,96875.31
2023-05-13T05:35:40.641Z,96879.91
2023-05-13T05:36:42.498Z,96884.72
2023-05-13T05:37:44.375Z,96873.06
2023-05-13T05:38:47.642Z,96884.28
2023-05-13T05:39:49.606Z,96877.88
2023-05-13T05:40:51.451Z,96879.66
2023-05-13T05:41:53.544Z,96874.84
2023-05-13T05:42:55.440Z,96878.44
2023-05-13T05:43:57.293Z,96878.44
2023-05-13T05:44:59.287Z,96881.69
2023-05-13T05:46:01.159Z,96876.44
2023-05-13T05:47:03.000Z,96867.00
2023-05-13T05:48:06.054Z,96882.47
2023-05-13T05:49:08.897Z,96880.47
2023-05-13T05:50:11.668Z,96882.47
2023-05-13T05:51:13.509Z,96874.03
2023-05-13T05:52:15.346Z,96878.03
2023-05-13T05:53:17.166Z,96880.25
2023-05-13T05:54:19.101Z,96880.84
2023-05-13T05:55:21.549Z,96876.41
2023-05-13T05:56:23.392Z,96869.56
2023-05-13T05:57:25.295Z,96875.56
2023-05-13T05:58:29.728Z,96883.59
2023-05-13T05:59:31.644Z,96877.13
2023-05-13T06:00:33.779Z,96877.13
2023-05-13T06:01:37.122Z,96879.56
2023-05-13T06:02:39.328Z,96880.72
2023-05-13T06:03:41.432Z,96879.13
2023-05-13T06:04:43.569Z,96876.09
2023-05-13T06:05:45.705Z,96874.47
2023-05-13T06:06:47.622Z,96877.09
2023-05-13T06:07:49.683Z,96876.91
2023-05-13T06:08:51.518Z,96873.50
2023-05-13T06:09:53.405Z,96877.50
2023-05-13T06:10:55.228Z,96873.66
2023-05-13T06:11:57.088Z,96882.50
2023-05-13T06:12:59.103Z,96877.09
2023-05-13T06:14:01.077Z,96880.53
2023-05-13T06:15:03.029Z,96877.88
2023-05-13T06:16:05.045Z,96881.47
2023-05-13T06:17:06.955Z,96879.28
2023-05-13T06:18:08.925Z,96873.88
2023-05-13T06:19:10.909Z,96877.88
2023-05-13T06:20:12.866Z,96882.69
2023-05-13T06:21:14.810Z,96875.81
2023-05-13T06:22:16.808Z,96877.44
2023-05-13T06:23:18.722Z,96874.00
2023-05-13T06:24:20.591Z,96871.97
2023-05-13T06:25:22.469Z,96876.78
2023-05-13T06:26:24.365Z,96870.94
2023-05-13T06:27:26.199Z,96875.56
2023-05-13T06:28:28.170Z,96864.47
2023-05-13T06:29:30.054Z,96869.72
2023-05-13T06:30:32.088Z,96875.53
2023-05-13T06:31:33.951Z,96867.88
2023-05-13T06:32:35.894Z,96866.69
2023-05-13T06:33:37.896Z,96871.31
2023-05-13T06:34:46.190Z,96873.72
2023-05-13T06:35:49.882Z,96867.47
2023-05-13T06:36:51.754Z,96868.28
2023-05-13T06:37:54.182Z,96874.16
2023-05-13T06:38:56.134Z,96867.47
2023-05-13T06:39:58.812Z,96864.50
2023-05-13T06:41:00.708Z,96862.47
2023-05-13T06:42:02.626Z,96870.72
2023-05-13T06:43:04.522Z,96864.47
2023-05-13T06:44:06.990Z,96859.06
2023-05-13T06:45:09.114Z,96865.88
2023-05-13T06:46:10.934Z,96866.47
2023-05-13T06:47:16.466Z,96867.03
2023-05-13T06:48:18.520Z,96872.47
2023-05-13T06:49:20.504Z,96866.84
2023-05-13T06:50:22.645Z,96864.38
2023-05-13T06:51:26.470Z,96875.59
2023-05-13T06:52:28.384Z,96866.53
2023-05-13T06:53:30.197Z,96870.31
2023-05-13T06:54:32.482Z,96868.28
2023-05-13T06:55:36.213Z,96858.41
2023-05-13T06:56:38.133Z,96861.22
2023-05-13T06:57:43.539Z,96862.38
2023-05-13T06:58:45.736Z,96858.91
2023-05-13T06:59:47.604Z,96853.25
2023-05-13T07:00:49.733Z,96855.44
2023-05-13T07:01:51.590Z,96865.47
2023-05-13T07:02:53.421Z,96855.81
2023-05-13T07:03:55.382Z,96863.22
2023-05-13T07:04:57.289Z,96858.38
2023-05-13T07:05:59.110Z,96858.38
2023-05-13T07:07:00.989Z,96858.75
2023-05-13T07:08:07.166Z,96856.50
2023-05-13T07:09:11.665Z,96851.84
2023-05-13T07:10:13.540Z,96850.63
2023-05-13T07:11:15.543Z,96843.13
2023-05-13T07:12:18.253Z,96852.16
2023-05-13T07:13:21.218Z,96857.97
2023-05-13T07:14:25.390Z,96852.28
2023-05-13T07:15:27.371Z,96847.63
2023-05-13T07:16:29.253Z,96852.88
2023-05-13T07:17:31.707Z,96848.81
2023-05-13T07:18:33.727Z,96847.94
2023-05-13T07:19:35.766Z,96849.69
2023-05-13T07:20:38.252Z,96845.84
2023-05-13T07:21:40.108Z,96853.03
2023-05-13T07:22:42.055Z,96857.03
2023-05-13T07:23:44.809Z,96853.53
2023-05-13T07:24:48.773Z,96852.91
2023-05-13T07:25:52.846Z,96845.63
2023-05-13T07:26:54.816Z,96849.03
2023-05-13T07:27:56.656Z,96849.63
2023-05-13T07:28:58.917Z,96845.75
2023-05-13T07:30:00.780Z,96843.13
2023-05-13T07:31:04.709Z,96848.75
2023-05-13T07:32:06.983Z,96848.69
2023-05-13T07:33:08.934Z,96852.25
2023-05-13T07:34:11.031Z,96843.13
2023-05-13T07:35:13.003Z,96844.06
2023-05-13T07:36:14.899Z,96847.06
2023-05-13T07:37:16.733Z,96839.78
2023-05-13T07:38:18.792Z,96845.59
2023-05-13T07:39:20.679Z,96847.19
2023-05-13T07:40:22.923Z,96839.31
2023-05-13T07:41:25.243Z,96841.72
2023-05-13T07:42:28.314Z,96839.91
2023-05-13T07:43:30.266Z,96841.50
2023-05-13T07:44:32.110Z,96836.84
2023-05-13T07:45:34.584Z,96841.88
2023-05-13T07:46:36.480Z,96835.00
2023-05-13T07:47:38.559Z,96840.63
2023-05-13T07:48:40.493Z,96836.16
2023-05-13T07:49:42.341Z,96840.16
2023-05-13T07:50:47.402Z,96833.91
2023-05-13T07:51:49.384Z,96837.09
2023-05-13T07:52:52.128Z,96844.97
2023-05-13T07:53:54.055Z,96836.06
2023-05-13T07:54:55.933Z,96837.69
2023-05-13T07:55:57.954Z,96834.00
2023-05-13T07:56:59.818Z,96828.34
2023-05-13T07:58:01.775Z,96834.16
2023-05-13T07:59:04.138Z,96835.78
2023-05-13T08:00:06.647Z,96826.88
2023-05-13T08:01:08.546Z,96837.94
2023-05-13T08:02:10.449Z,96832.25
2023-05-13T08:03:12.812Z,96830.78
2023-05-13T08:04:14.880Z,96831.34
2023-05-13T08:05:16.879Z,96835.13
2023-05-13T08:06:18.759Z,96830.78
2023-05-13T08:07:20.695Z,96825.88
2023-05-13T08:08:22.611Z,96828.66
2023-05-13T08:09:24.939Z,96829.78
2023-05-13T08:10:26.833Z,96830.72
2023-05-13T08:11:29.231Z,96830.25
2023-05-13T08:12:31.197Z,96831.63
2023-05-13T08:13:33.011Z,96829.13
2023-05-13T08:14:34.938Z,96838.72
2023-05-13T08:15:37.408Z,96828.56
2023-05-13T08:16:39.326Z,96832.13
2023-05-13T08:17:41.273Z,96828.78
2023-05-13T08:18:43.138Z,96835.22
2023-05-13T08:19:45.032Z,96832.94
2023-05-13T08:20:46.935Z,96832.81
2023-05-13T08:21:48.880Z,96825.28
2023-05-13T08:22:50.933Z,96832.03
2023-05-13T08:23:52.811Z,96833.94
2023-05-13T08:24:54.869Z,96835.09
2023-05-13T08:25:56.854Z,96829.91
2023-05-13T08:26:58.790Z,96832.66
2023-05-13T08:28:00.665Z,96838.84
2023-05-13T08:29:02.484Z,96833.44
2023-05-13T08:30:05.148Z,96827.72
2023-05-13T08:31:06.994Z,96828.59
2023-05-13T08:32:08.938Z,96826.88
2023-05-13T08:33:11.869Z,96827.00
2023-05-13T08:34:13.793Z,96826.50
2023-05-13T08:35:15.646Z,96831.63
2023-05-13T08:36:17.576Z,96822.50
2023-05-13T08:37:19.467Z,96827.28
2023-05-13T08:38:21.429Z,96827.38
2023-05-13T08:39:23.489Z,96827.72
2023-05-13T08:40:25.364Z,96828.84
2023-05-13T08:41:27.271Z,96823.88
2023-05-13T08:42:29.268Z,96830.03
2023-05-13T08:43:32.860Z,96828.44
2023-05-13T08:44:39.996Z,96823.91
2023-05-13T08:45:42.345Z,96823.53
2023-05-13T08:46:51.245Z,96829.41
2023-05-13T08:47:57.181Z,96824.00
2023-05-13T08:48:59.400Z,96825.34
2023-05-13T08:50:01.543Z,96818.81
2023-05-13T08:51:03.614Z,96825.41
2023-05-13T08:52:05.845Z,96821.81
2023-05-13T08:53:08.008Z,96819.34
2023-05-13T08:54:11.103Z,96822.16
2023-05-13T08:55:13.581Z,96816.78
2023-05-13T08:56:15.451Z,96817.22
2023-05-13T08:57:17.290Z,96819.25
2023-05-13T08:58:19.347Z,96814.34
2023-05-13T08:59:21.186Z,96818.63
2023-05-13T09:00:23.150Z,96818.94
2023-05-13T09:01:26.831Z,96817.19
2023-05-13T09:02:30.029Z,96815.88
2023-05-13T09:03:31.983Z,96814.66
2023-05-13T09:04:37.903Z,96810.50
2023-05-13T09:05:39.999Z,96810.28
2023-05-13T09:06:41.904Z,96811.69
2023-05-13T09:07:43.819Z,96816.22
2023-05-13T09:08:45.866Z,96813.34
2023-05-13T09:09:47.833Z,96817.84
2023-05-13T09:10:49.710Z,96810.47
2023-05-13T09:11:51.576Z,96811.09
2023-05-13T09:12:54.650Z,96804.81
2023-05-13T09:13:58.122Z,96800.44
2023-05-13T09:15:00.042Z,96809.50
2023-05-13T09:16:02.624Z,96805.44
2023-05-13T09:17:04.833Z,96802.31
2023-05-13T09:18:07.840Z,96803.97
2023-05-13T09:19:11.670Z,96806.91
2023-05-13T09:20:15.710Z,96801.88
2023-05-13T09:21:43.678Z,96800.31
2023-05-13T09:22:54.702Z,96800.78
2023-05-13T09:24:02.784Z,96801.50
2023-05-13T09:25:04.898Z,96798.31
2023-05-13T09:26:09.361Z,96812.28
2023-05-13T09:27:11.244Z,96800.09
2023-05-13T09:28:14.968Z,96801.06
2023-05-13T09:29:24.388Z,96806.59
2023-05-13T09:30:27.516Z,96807.59
2023-05-13T09:31:35.317Z,96795.94
2023-05-13T09:32:38.058Z,96807.00
2023-05-13T09:33:52.291Z,96804.09
2023-05-13T09:34:54.108Z,96809.19
2023-05-13T09:35:55.978Z,96800.03
2023-05-13T09:37:05.321Z,96803.28
2023-05-13T09:38:17.243Z,96798.88
2023-05-13T09:39:19.097Z,96799.22
2023-05-13T09:40:21.310Z,96806.13
2023-05-13T09:41:25.777Z,96800.09
2023-05-13T09:42:27.749Z,96794.03
2023-05-13T09:43:32.718Z,96802.19
2023-05-13T09:44:34.646Z,96792.94
2023-05-13T09:45:36.411Z,96809.25
2023-05-13T09:46:38.284Z,96802.09
2023-05-13T09:47:41.159Z,96789.16
2023-05-13T09:48:43.811Z,96789.94
2023-05-13T09:49:46.265Z,96790.75
2023-05-13T09:50:52.638Z,96794.44
2023-05-13T09:51:54.457Z,96783.56
2023-05-13T09:52:56.360Z,96790.91
2023-05-13T09:54:07.609Z,96793.25
2023-05-13T09:55:09.784Z,96791.16
2023-05-13T09:56:11.651Z,96788.53
2023-05-13T09:57:13.917Z,96793.81
2023-05-13T09:58:16.445Z,96795.91
2023-05-13T09:59:18.429Z,96792.72
2023-05-13T10:00:31.515Z,96791.13
2023-05-13T10:01:35.785Z,96795.34
2023-05-13T10:02:38.723Z,96789.28
2023-05-13T10:03:40.738Z,96793.78
2023-05-13T10:04:43.545Z,96790.06
2023-05-13T10:05:45.368Z,96784.31
2023-05-13T10:06:47.991Z,96783.25
2023-05-13T10:07:49.959Z,96789.84
2023-05-13T10:08:52.884Z,96791.22
2023-05-13T10:09:58.919Z,96790.16
2023-05-13T10:11:00.953Z,96795.44
2023-05-13T10:12:03.838Z,96788.84
2023-05-13T10:13:07.272Z,96789.66
2023-05-13T10:14:09.337Z,96789.13
2023-05-13T10:15:11.369Z,96788.84
2023-05-13T10:16:13.472Z,96793.09
2023-05-13T10:17:15.585Z,96794.69
2023-05-13T10:18:18.587Z,96792.03
2023-05-13T10:19:21.595Z,96793.09
2023-05-13T10:20:24.930Z,96790.94
2023-05-13T10:21:29.870Z,96792.25
2023-05-13T10:22:32.800Z,96791.47
2023-05-13T10:23:34.983Z,96795.44
2023-05-13T10:24:38.781Z,96791.25
2023-05-13T10:25:42.310Z,96790.59
2023-05-13T10:26:44.558Z,96797.50
2023-05-13T10:27:46.803Z,96787.72
2023-05-13T10:28:49.966Z,96789.56
2023-05-13T10:29:54.734Z,96788.22
2023-05-13T10:30:57.420Z,96793.78
2023-05-13T10:32:00.418Z,96794.03
2023-05-13T10:33:03.392Z,96793.47
2023-05-13T10:34:05.368Z,96795.59
2023-05-13T10:35:10.979Z,96785.84
2023-05-13T10:36:12.856Z,96787.44
2023-05-13T10:37:24.264Z,96781.91
2023-05-13T10:38:32.284Z,96789.28
2023-05-13T10:39:42.232Z,96785.91
2023-05-13T10:41:02.562Z,96782.75
2023-05-13T10:42:19.716Z,96784.22
2023-05-13T10:43:22.266Z,96788.69
2023-05-13T10:44:24.190Z,96790.41
2023-05-13T10:45:27.443Z,96785.97
2023-05-13T10:46:29.520Z,96785.16
2023-05-13T10:47:33.664Z,96787.00
2023-05-13T10:48:41.121Z,96779.09
2023-05-13T10:49:50.300Z,96781.19
2023-05-13T10:51:01.850Z,96781.69
2023-05-13T10:52:07.537Z,96785.13
2023-05-13T10:53:13.020Z,96780.88
2023-05-13T10:54:22.049Z,96784.59
2023-05-13T10:55:24.213Z,96783.56
2023-05-13T10:56:28.094Z,96782.25
2023-05-13T10:57:36.185Z,96781.72
2023-05-13T10:58:38.780Z,96789.16
2023-05-13T11:00:00.716Z,96787.56
2023-05-13T11:01:14.999Z,96781.19
2023-05-13T11:02:24.051Z,96789.59
2023-05-13T11:03:30.233Z,96800.97
2023-05-13T11:04:32.188Z,96790.34
2023-05-13T11:05:34.048Z,96791.94
2023-05-13T11:06:37.237Z,96788.22
2023-05-13T11:07:39.908Z,96787.13
2023-05-13T11:08:46.176Z,96781.31
2023-05-13T11:09:51.788Z,96776.28
2023-05-13T11:10:56.800Z,96771.78
2023-05-13T11:11:59.407Z,96776.03
2023-05-13T11:13:09.560Z,96780.56
2023-05-13T11:14:18.168Z,96774.31
2023-05-13T11:15:23.036Z,96768.56
2023-05-13T11:16:24.954Z,96776.75
2023-05-13T11:17:26.834Z,96773.03
2023-05-13T11:18:31.931Z,96770.38
2023-05-13T11:19:36.019Z,96774.63
2023-05-13T11:20:51.523Z,96776.72
2023-05-13T11:21:58.230Z,96773.56
2023-05-13T11:23:01.246Z,96786.56
2023-05-13T11:24:04.510Z,96791.06
2023-05-13T11:25:08.519Z,96785.78
2023-05-13T11:26:12.657Z,96787.09
2023-05-13T11:27:16.258Z,96782.56
2023-05-13T11:28:20.965Z,96787.81
2023-05-13T11:29:32.682Z,96781.97
2023-05-13T11:30:34.668Z,96778.03
2023-05-13T11:31:47.776Z,96780.91
2023-05-13T11:32:59.714Z,96783.28
2023-05-13T11:34:13.903Z,96781.69
2023-05-13T11:35:20.177Z,96784.34
2023-05-13T11:36:22.179Z,96781.44
2023-05-13T11:37:24.034Z,96787.00
2023-05-13T11:38:25.955Z,96778.34
2023-05-13T11:39:27.929Z,96785.50
2023-05-13T11:40:30.997Z,96776.72
2023-05-13T11:41:33.703Z,96774.56
2023-05-13T11:42:35.714Z,96768.63
2023-05-13T11:43:39.581Z,96770.25
2023-05-13T11:44:47.659Z,96768.69
2023-05-13T11:45:50.687Z,96775.63
2023-05-13T11:46:54.555Z,96776.19
2023-05-13T11:47:56.819Z,96778.81
2023-05-13T11:48:58.661Z,96773.78
2023-05-13T11:50:00.912Z,96779.09
2023-05-13T11:51:02.780Z,96771.19
2023-05-13T11:52:06.258Z,96778.84
2023-05-13T11:53:08.341Z,96774.63
2023-05-13T11:54:11.994Z,96776.75
2023-05-13T11:55:24.672Z,96777.81
2023-05-13T11:56:27.216Z,96779.66
2023-05-13T11:57:32.980Z,96777.56
2023-05-13T11:58:34.840Z,96774.09
2023-05-13T11:59:47.665Z,96771.97
2023-05-13T12:00:50.313Z,96770.91
2023-05-13T12:02:04.617Z,96767.75
2023-05-13T12:03:12.219Z,96762.44
2023-05-13T12:04:14.126Z,96769.88
2023-05-13T12:05:16.075Z,96765.88
2023-05-13T12:06:18.490Z,96768.81
2023-05-13T12:07:27.489Z,96767.22
2023-05-13T12:08:30.492Z,96770.41
2023-05-13T12:09:32.305Z,96767.75
2023-05-13T12:10:34.249Z,96767.75
2023-05-13T12:11:36.377Z,96761.88
2023-05-13T12:12:38.976Z,96760.28
2023-05-13T12:13:43.646Z,96759.47
2023-05-13T12:14:46.587Z,96765.03
2023-05-13T12:15:50.255Z,96770.59
2023-05-13T12:16:52.183Z,96769.75
2023-05-13T12:17:55.025Z,96762.34
2023-05-13T12:19:00.440Z,96762.88
2023-05-13T12:20:08.514Z,96767.69